Time;durP1;ratioP1;P1;durP2;ratioP2;P2;SDS_P1;SDS_P2;PMS_P1;PMS_P2;Temp;Humidity;BMP_temperature;BMP_pressure;BME280_temperature;BME280_humidity;BME280_pressure;Samples;Min_cycle;Max_cycle;Signal;HPM_P1;HPM_P2
2022/07/21 00:02:14;;;;;;;24.05;20.35;;;17.50;99.90;;;;;;4781424;30;20051;-86
2022/07/21 00:05:03;;;;;;;30.00;21.60;;;17.50;99.90;;;;;;4776852;29;20371;-86
2022/07/21 00:07:54;;;;;;;27.25;21.65;;;17.40;99.90;;;;;;4772514;30;20067;-86
2022/07/21 00:10:43;;;;;;;26.63;23.30;;;17.30;99.90;;;;;;4765479;30;20062;-86
2022/07/21 00:13:30;;;;;;;29.13;22.65;;;17.30;99.90;;;;;;4786266;30;20045;-87
2022/07/21 00:16:18;;;;;;;29.48;22.77;;;17.30;99.90;;;;;;4785763;29;20082;-87
2022/07/21 00:19:11;;;;;;;34.75;25.08;;;17.30;99.90;;;;;;4780270;30;20420;-86
2022/07/21 00:22:00;;;;;;;33.30;25.05;;;17.40;99.90;;;;;;4787849;29;20060;-85
2022/07/21 00:24:48;;;;;;;30.42;24.60;;;17.30;99.90;;;;;;4796074;29;20070;-86
2022/07/21 00:27:36;;;;;;;28.80;25.50;;;17.30;99.90;;;;;;4779741;29;20086;-86
2022/07/21 00:30:23;;;;;;;26.48;20.58;;;17.30;99.90;;;;;;4789422;30;20047;-86
2022/07/21 00:33:10;;;;;;;26.85;22.05;;;17.30;99.90;;;;;;4777933;30;20052;-86
2022/07/21 00:35:58;;;;;;;27.92;22.67;;;17.40;99.90;;;;;;4787871;30;20047;-86
2022/07/21 00:38:47;;;;;;;30.05;22.75;;;17.40;99.90;;;;;;4778507;30;20386;-85
2022/07/21 00:41:37;;;;;;;24.63;21.55;;;17.40;99.90;;;;;;4766896;30;20066;-85
2022/07/21 00:44:29;;;;;;;28.90;22.50;;;17.40;99.90;;;;;;4779883;29;20071;-85
2022/07/21 00:47:25;;;;;;;30.17;24.23;;;17.40;99.90;;;;;;4783403;29;20062;-85
2022/07/21 00:50:19;;;;;;;38.85;28.15;;;17.50;99.90;;;;;;4769359;29;20056;-85
2022/07/21 00:53:06;;;;;;;34.08;27.23;;;17.40;99.90;;;;;;4785700;30;20052;-86
2022/07/21 00:55:59;;;;;;;30.33;22.67;;;17.40;99.90;;;;;;4779978;29;20056;-87
2022/07/21 00:58:46;;;;;;;27.27;20.45;;;17.40;99.90;;;;;;4774929;30;20063;-87
2022/07/21 01:01:37;;;;;;;21.23;17.27;;;17.40;99.90;;;;;;4780362;30;20051;-83
2022/07/21 01:04:26;;;;;;;23.88;16.95;;;17.50;99.90;;;;;;4771702;30;20055;-86
2022/07/21 01:07:15;;;;;;;23.08;16.00;;;17.40;99.90;;;;;;4779670;29;20497;-85
2022/07/21 01:10:03;;;;;;;22.00;15.85;;;17.40;99.90;;;;;;4779769;29;20051;-85
2022/07/21 01:12:51;;;;;;;20.33;15.43;;;17.40;99.90;;;;;;4785839;30;20051;-86
2022/07/21 01:15:38;;;;;;;17.55;14.50;;;17.40;99.90;;;;;;4784436;30;20047;-86
2022/07/21 01:18:31;;;;;;;20.02;14.85;;;17.40;99.90;;;;;;4782952;30;20059;-83
2022/07/21 01:21:38;;;;;;;17.38;14.18;;;17.40;99.90;;;;;;4776393;29;20463;-84
2022/07/21 01:24:30;;;;;;;17.30;15.10;;;17.40;99.90;;;;;;4776200;30;20492;-82
2022/07/21 01:27:25;;;;;;;18.90;14.85;;;17.30;99.90;;;;;;4775790;30;20063;-83
2022/07/21 01:30:16;;;;;;;18.85;15.68;;;17.40;99.90;;;;;;4777752;30;20052;-84
2022/07/21 01:33:06;;;;;;;22.30;15.45;;;17.40;99.90;;;;;;4772935;30;20117;-84
2022/07/21 01:35:53;;;;;;;19.73;15.25;;;17.40;99.90;;;;;;4777081;29;20118;-84
2022/07/21 01:41:49;;;;;;;18.55;15.90;;;17.40;99.90;;;;;;4764123;30;20475;-83
2022/07/21 01:44:37;;;;;;;18.23;14.07;;;17.40;99.90;;;;;;4776145;30;20123;-84
2022/07/21 01:47:24;;;;;;;22.48;14.82;;;17.40;99.90;;;;;;4789250;29;20113;-83
2022/07/21 01:50:14;;;;;;;18.77;14.70;;;17.40;99.90;;;;;;4772460;29;20116;-85
2022/07/21 01:53:06;;;;;;;21.90;16.13;;;17.40;99.90;;;;;;4770740;30;20343;-87
2022/07/21 01:55:58;;;;;;;20.20;16.55;;;17.40;99.90;;;;;;4771918;30;20051;-84
2022/07/21 01:58:47;;;;;;;17.17;15.18;;;17.30;99.90;;;;;;4757444;30;20072;-84
2022/07/21 02:01:39;;;;;;;22.05;14.85;;;17.30;99.90;;;;;;4770757;30;20156;-84
2022/07/21 02:04:27;;;;;;;;;;;17.30;99.90;;;;;;4777863;29;20134;-84
2022/07/21 02:07:17;;;;;;;22.02;16.00;;;17.30;99.90;;;;;;4774048;30;19926;-85
2022/07/21 02:10:05;;;;;;;21.67;17.63;;;17.30;99.90;;;;;;4768303;29;20059;-84
2022/07/21 02:12:55;;;;;;;25.83;18.85;;;17.30;99.90;;;;;;4775008;30;20178;-83
2022/07/21 02:15:42;;;;;;;27.00;19.35;;;17.20;99.90;;;;;;4770933;29;20051;-84
2022/07/21 02:18:32;;;;;;;22.70;18.95;;;17.20;99.90;;;;;;4775853;30;20288;-85
2022/07/21 02:21:21;;;;;;;26.08;19.65;;;17.20;99.90;;;;;;4760037;30;20056;-85
2022/07/21 02:24:11;;;;;;;28.05;21.60;;;17.20;99.90;;;;;;4782658;30;20067;-86
2022/07/21 02:27:01;;;;;;;29.02;20.13;;;17.20;99.90;;;;;;4770542;30;20450;-85
2022/07/21 02:29:52;;;;;;;31.15;21.98;;;17.20;99.90;;;;;;4771595;30;20058;-86
2022/07/21 02:32:42;;;;;;;30.10;22.70;;;17.20;99.90;;;;;;4776382;29;20113;-85
2022/07/21 02:35:29;;;;;;;28.20;21.45;;;17.20;99.90;;;;;;4773015;29;20051;-85
2022/07/21 02:38:18;;;;;;;30.58;22.75;;;17.20;99.90;;;;;;4761295;30;20379;-85
2022/07/21 02:41:06;;;;;;;25.45;21.80;;;17.20;99.90;;;;;;4762556;29;20137;-85
2022/07/21 02:43:58;;;;;;;28.83;22.65;;;17.20;99.90;;;;;;4776156;30;20074;-85
2022/07/21 02:46:50;;;;;;;28.17;22.27;;;17.20;99.90;;;;;;4762272;30;20134;-85
2022/07/21 02:49:37;;;;;;;28.98;21.33;;;17.20;99.90;;;;;;4772703;29;20109;-85
2022/07/21 02:52:25;;;;;;;26.58;22.52;;;17.20;99.90;;;;;;4778449;30;20051;-85
2022/07/21 02:55:14;;;;;;;30.08;22.90;;;17.20;99.90;;;;;;4772930;29;20201;-85
2022/07/21 02:58:15;;;;;;;28.27;22.17;;;17.20;99.90;;;;;;4771946;29;20052;-84
2022/07/21 03:01:08;;;;;;;27.80;21.13;;;17.20;99.90;;;;;;4765495;30;20171;-85
2022/07/21 03:03:55;;;;;;;28.65;21.25;;;17.20;99.90;;;;;;4771019;30;20131;-84
2022/07/21 03:06:43;;;;;;;23.98;20.05;;;17.20;99.90;;;;;;4785381;29;20048;-86
2022/07/21 03:09:31;;;;;;;29.60;21.45;;;17.20;99.90;;;;;;4764708;29;20087;-85
2022/07/21 03:12:21;;;;;;;25.60;20.05;;;17.20;99.90;;;;;;4783947;29;20048;-85
2022/07/21 03:15:12;;;;;;;28.70;21.10;;;17.20;99.90;;;;;;4779298;29;20051;-84
2022/07/21 03:18:03;;;;;;;29.70;20.40;;;17.20;99.90;;;;;;4773627;30;20066;-84
2022/07/21 03:20:50;;;;;;;27.30;19.45;;;17.20;99.90;;;;;;4784132;29;20064;-84
2022/07/21 03:23:45;;;;;;;27.95;20.17;;;17.20;99.90;;;;;;4770809;30;20067;-85
2022/07/21 03:26:38;;;;;;;25.15;19.77;;;17.20;99.90;;;;;;4765743;29;20079;-85
2022/07/21 03:29:27;;;;;;;25.88;20.05;;;17.20;99.90;;;;;;4763936;30;20060;-85
2022/07/21 03:32:17;;;;;;;24.85;20.17;;;17.30;99.90;;;;;;4775219;29;20079;-84
2022/07/21 03:35:06;;;;;;;25.08;20.42;;;17.30;99.90;;;;;;4770864;30;20056;-85
2022/07/21 03:37:58;;;;;;;27.27;21.13;;;17.20;99.90;;;;;;4768573;29;20059;-85
2022/07/21 03:40:48;;;;;;;26.33;21.50;;;17.20;99.90;;;;;;4776485;29;20048;-85
2022/07/21 03:43:35;;;;;;;28.08;22.70;;;17.20;99.90;;;;;;4770513;30;20062;-85
2022/07/21 03:46:23;;;;;;;27.27;21.75;;;17.20;99.90;;;;;;4769298;30;20094;-85
2022/07/21 03:49:13;;;;;;;34.35;22.92;;;17.10;99.90;;;;;;4771978;29;20340;-84
2022/07/21 03:52:03;;;;;;;31.95;22.73;;;17.20;99.90;;;;;;4776845;30;20117;-84
2022/07/21 03:55:07;;;;;;;29.40;24.05;;;17.20;99.90;;;;;;4771051;29;20055;-85
2022/07/21 03:58:08;;;;;;;30.88;23.73;;;17.10;99.90;;;;;;4768688;30;20052;-85
2022/07/21 04:05:04;;;;;;;32.67;24.95;;;17.10;99.90;;;;;;4757821;30;20107;-84
2022/07/21 04:07:54;;;;;;;33.17;25.10;;;17.10;99.90;;;;;;4771466;30;20060;-85
2022/07/21 04:10:44;;;;;;;40.58;26.67;;;17.00;99.90;;;;;;4775025;29;20056;-85
2022/07/21 04:13:38;;;;;;;37.05;26.45;;;17.10;99.90;;;;;;4770736;30;20058;-84
2022/07/21 04:16:26;;;;;;;34.28;25.85;;;17.00;99.90;;;;;;4770912;30;20507;-86
2022/07/21 04:19:18;;;;;;;35.55;26.65;;;17.00;99.90;;;;;;4770348;30;20063;-85
2022/07/21 04:22:05;;;;;;;36.25;25.27;;;17.00;99.90;;;;;;4769903;30;20052;-85
2022/07/21 04:24:54;;;;;;;33.63;26.88;;;17.00;99.90;;;;;;4770324;30;20431;-85
2022/07/21 04:27:46;;;;;;;48.15;26.92;;;17.00;99.90;;;;;;4762996;30;20055;-86
2022/07/21 04:30:35;;;;;;;37.97;28.67;;;17.00;99.90;;;;;;4765703;30;20048;-85
2022/07/21 04:33:22;;;;;;;34.92;27.75;;;17.00;99.90;;;;;;4781006;30;20056;-86
2022/07/21 04:36:12;;;;;;;37.47;28.90;;;17.00;99.90;;;;;;4762373;30;20120;-86
2022/07/21 04:38:59;;;;;;;38.08;28.38;;;17.00;99.90;;;;;;4780926;29;20082;-86
2022/07/21 04:41:48;;;;;;;43.08;28.35;;;17.00;99.90;;;;;;4778157;30;20371;-84
2022/07/21 04:44:36;;;;;;;38.88;27.17;;;17.00;99.90;;;;;;4771039;29;20059;-86
2022/07/21 04:47:26;;;;;;;40.20;29.70;;;17.10;99.90;;;;;;4769692;30;20336;-85
2022/07/21 04:50:15;;;;;;;35.00;27.23;;;17.10;99.90;;;;;;4778775;30;20112;-86
2022/07/21 04:53:02;;;;;;;38.15;28.40;;;17.10;99.90;;;;;;4783498;30;20048;-86
2022/07/21 04:55:49;;;;;;;41.47;29.13;;;17.10;99.90;;;;;;4768540;30;20382;-86
2022/07/21 04:58:41;;;;;;;36.67;27.63;;;17.20;99.90;;;;;;4770012;30;20431;-84
2022/07/21 05:01:29;;;;;;;36.05;28.80;;;17.20;99.90;;;;;;4768972;30;20131;-85
2022/07/21 05:04:18;;;;;;;35.03;26.42;;;17.20;99.90;;;;;;4765562;30;20082;-85
2022/07/21 05:07:08;;;;;;;34.53;27.25;;;17.40;99.90;;;;;;4772683;30;20158;-84
2022/07/21 05:10:05;;;;;;;35.17;26.90;;;17.30;99.90;;;;;;4772049;29;20195;-86
2022/07/21 05:12:56;;;;;;;32.55;27.42;;;17.40;99.90;;;;;;4783891;29;20055;-85
2022/07/21 05:15:46;;;;;;;28.50;23.77;;;17.40;99.90;;;;;;4787013;30;20123;-85
2022/07/21 05:18:33;;;;;;;35.15;23.80;;;17.50;99.90;;;;;;4777624;29;20775;-84
2022/07/21 05:21:21;;;;;;;26.88;23.17;;;17.50;99.90;;;;;;4775188;30;20144;-85
2022/07/21 05:24:09;;;;;;;30.80;23.65;;;17.60;99.90;;;;;;4776397;29;20451;-85
2022/07/21 05:26:56;;;;;;;26.52;21.00;;;17.70;99.90;;;;;;4776582;29;20128;-85
2022/07/21 05:29:44;;;;;;;25.58;22.75;;;17.70;99.90;;;;;;4777837;29;20885;-85
2022/07/21 05:32:33;;;;;;;26.05;21.45;;;17.70;99.90;;;;;;4778244;29;20051;-85
2022/07/21 05:35:22;;;;;;;23.33;19.75;;;17.80;99.90;;;;;;4777293;29;20051;-86
2022/07/21 05:38:09;;;;;;;25.15;18.95;;;17.90;99.90;;;;;;4777960;29;20056;-86
2022/07/21 05:41:02;;;;;;;21.42;17.20;;;17.90;99.90;;;;;;4778649;29;20071;-85
2022/07/21 05:43:50;;;;;;;21.20;18.15;;;18.00;99.90;;;;;;4777533;30;20055;-86
2022/07/21 05:46:39;;;;;;;25.30;17.60;;;18.00;99.90;;;;;;4774553;29;20447;-86
2022/07/21 05:49:27;;;;;;;20.48;17.40;;;18.00;99.90;;;;;;4773475;30;20511;-84
2022/07/21 05:52:17;;;;;;;24.67;16.92;;;18.10;99.90;;;;;;4772926;30;20461;-87
2022/07/21 05:55:13;;;;;;;20.92;15.50;;;18.20;99.90;;;;;;4773005;30;20370;-85
2022/07/21 05:58:03;;;;;;;19.02;15.32;;;18.20;99.90;;;;;;4772299;29;20051;-86
2022/07/21 06:01:12;;;;;;;20.85;15.15;;;18.20;99.90;;;;;;4770966;30;20118;-85
2022/07/21 06:04:02;;;;;;;21.58;14.35;;;18.30;67.80;;;;;;4774279;29;20077;-85
2022/07/21 06:06:49;;;;;;;19.48;14.70;;;18.40;12.90;;;;;;4774685;30;20098;-84
2022/07/21 06:09:41;;;;;;;19.20;14.65;;;18.50;1.00;;;;;;4773988;29;20165;-86
2022/07/21 06:12:29;;;;;;;17.13;14.13;;;18.60;1.00;;;;;;4767906;30;20047;-84
2022/07/21 06:15:20;;;;;;;20.73;14.60;;;18.60;1.00;;;;;;4782530;29;20056;-85
2022/07/21 06:18:07;;;;;;;17.27;12.88;;;18.70;1.00;;;;;;4773104;29;20060;-85
2022/07/21 06:20:54;;;;;;;15.95;13.05;;;18.70;99.90;;;;;;4770030;29;20133;-85
2022/07/21 06:23:42;;;;;;;16.15;13.32;;;18.80;1.00;;;;;;4788560;29;20066;-85
2022/07/21 06:26:32;;;;;;;20.30;12.43;;;18.90;99.90;;;;;;4774151;29;20059;-85
2022/07/21 06:29:22;;;;;;;15.50;12.63;;;19.00;51.80;;;;;;4782816;29;20101;-86
2022/07/21 06:32:09;;;;;;;15.90;11.02;;;19.00;99.90;;;;;;4775212;30;20052;-85
2022/07/21 06:35:04;;;;;;;;;;;19.20;99.90;;;;;;4775992;29;20062;-85
2022/07/21 06:37:51;;;;;;;14.80;12.00;;;19.30;99.90;;;;;;4773613;29;19947;-86
2022/07/21 06:40:41;;;;;;;15.07;11.05;;;19.30;99.90;;;;;;4777876;30;20063;-86
2022/07/21 06:43:32;;;;;;;17.38;11.38;;;19.60;1.00;;;;;;4771743;30;20052;-87
2022/07/21 06:46:24;;;;;;;12.98;10.93;;;19.70;99.90;;;;;;4781283;29;20059;-84
2022/07/21 06:49:12;;;;;;;15.32;12.18;;;19.80;1.00;;;;;;4799292;29;20090;-85
2022/07/21 06:52:02;;;;;;;16.42;11.48;;;19.90;1.40;;;;;;4771887;30;20448;-86
2022/07/21 06:54:49;;;;;;;14.13;11.07;;;20.10;99.90;;;;;;4778722;30;20108;-87
2022/07/21 06:57:37;;;;;;;12.90;10.27;;;20.30;99.90;;;;;;4785516;29;20390;-86
2022/07/21 07:00:24;;;;;;;14.73;10.45;;;20.50;1.00;;;;;;4772840;30;20394;-87
2022/07/21 07:03:12;;;;;;;13.57;10.60;;;20.70;1.00;;;;;;4769112;30;20060;-88
2022/07/21 07:05:59;;;;;;;13.43;10.77;;;20.70;99.90;;;;;;4768113;30;20055;-88
2022/07/21 07:08:46;;;;;;;10.15;9.00;;;20.80;99.90;;;;;;4769955;30;20347;-87
2022/07/21 07:11:34;;;;;;;11.18;9.55;;;21.10;99.90;;;;;;4772879;29;20167;-87
2022/07/21 07:14:23;;;;;;;11.40;9.90;;;21.30;99.90;;;;;;4772938;29;20075;-87
2022/07/21 07:17:18;;;;;;;13.40;8.95;;;21.50;99.90;;;;;;4775778;29;20473;-88
2022/07/21 07:20:07;;;;;;;10.23;8.20;;;21.60;45.10;;;;;;4777722;29;20055;-89
2022/07/21 07:22:55;;;;;;;12.13;8.63;;;21.90;1.00;;;;;;4778609;29;20170;-85
2022/07/21 07:25:42;;;;;;;12.63;8.05;;;22.00;1.00;;;;;;4774181;29;20059;-86
2022/07/21 07:28:32;;;;;;;9.43;7.53;;;22.00;1.00;;;;;;4784896;29;20055;-86
2022/07/21 07:31:19;;;;;;;10.48;7.85;;;22.80;1.00;;;;;;4766810;30;20369;-86
2022/07/21 07:34:09;;;;;;;9.68;7.65;;;23.10;99.90;;;;;;4772037;29;20075;-84
2022/07/21 07:37:00;;;;;;;9.35;7.53;;;23.10;99.90;;;;;;4771556;30;20451;-85
2022/07/21 07:39:50;;;;;;;9.90;6.90;;;23.00;99.90;;;;;;4772641;29;20087;-85
2022/07/21 07:42:40;;;;;;;10.38;6.95;;;22.80;99.90;;;;;;4779125;29;20103;-84
2022/07/21 07:45:27;;;;;;;8.23;7.40;;;22.70;99.90;;;;;;4777036;30;20066;-85
2022/07/21 07:48:15;;;;;;;11.00;7.30;;;22.90;99.90;;;;;;4775255;30;20108;-86
2022/07/21 07:51:07;;;;;;;9.35;6.65;;;23.10;99.90;;;;;;4776028;30;20063;-83
2022/07/21 07:54:00;;;;;;;8.65;7.65;;;23.60;99.90;;;;;;4772852;29;20114;-84
2022/07/21 07:56:50;;;;;;;12.30;7.28;;;23.80;99.90;;;;;;4767171;30;20083;-87
2022/07/21 07:59:38;;;;;;;8.25;6.32;;;23.80;99.90;;;;;;4778065;30;20063;-86
2022/07/21 08:02:28;;;;;;;7.43;6.15;;;24.10;99.90;;;;;;4771944;30;20055;-87
2022/07/21 08:05:15;;;;;;;7.15;5.43;;;24.50;99.90;;;;;;4767744;30;20197;-84
2022/07/21 08:08:05;;;;;;;9.18;6.35;;;24.60;99.90;;;;;;4776168;29;20144;-86
2022/07/21 08:10:52;;;;;;;10.63;6.88;;;24.50;99.90;;;;;;4772901;30;20103;-87
2022/07/21 08:13:40;;;;;;;13.20;6.38;;;24.20;99.90;;;;;;4789308;29;20063;-86
2022/07/21 08:16:32;;;;;;;7.85;6.07;;;24.40;99.90;;;;;;4779685;29;20060;-87
2022/07/21 08:19:20;;;;;;;9.05;5.90;;;24.50;99.90;;;;;;4788670;29;20438;-86
2022/07/21 08:22:09;;;;;;;7.65;5.35;;;24.20;99.90;;;;;;4785167;30;20052;-86
2022/07/21 08:25:00;;;;;;;8.15;5.40;;;24.10;93.20;;;;;;4777718;29;20379;-86
2022/07/21 08:27:50;;;;;;;8.05;6.93;;;23.30;99.90;;;;;;4783374;29;20058;-87
2022/07/21 08:30:37;;;;;;;7.35;6.25;;;23.20;99.90;;;;;;4781548;30;20108;-87
2022/07/21 08:33:27;;;;;;;6.90;5.75;;;23.80;99.90;;;;;;4784311;30;20048;-87
2022/07/21 08:36:16;;;;;;;8.90;6.32;;;24.50;99.90;;;;;;4790503;30;20051;-86
2022/07/21 08:39:10;;;;;;;10.23;6.20;;;24.40;81.00;;;;;;4789363;29;20035;-85
2022/07/21 08:41:59;;;;;;;7.22;5.20;;;24.60;91.50;;;;;;4785548;29;20046;-84
2022/07/21 08:44:49;;;;;;;7.70;6.30;;;25.10;43.20;;;;;;4783642;30;20055;-85
2022/07/21 08:47:37;;;;;;;7.35;5.60;;;25.40;41.50;;;;;;4784072;29;20044;-85
2022/07/21 08:50:37;;;;;;;7.45;5.70;;;24.80;30.20;;;;;;4779993;29;20451;-87
2022/07/21 08:53:25;;;;;;;9.98;6.05;;;24.50;28.80;;;;;;4775689;29;20062;-87
2022/07/21 08:56:13;;;;;;;8.02;5.75;;;24.40;29.60;;;;;;4776722;30;20058;-85
2022/07/21 08:59:05;;;;;;;7.68;5.68;;;24.90;27.80;;;;;;4781100;30;20064;-86
2022/07/21 09:01:55;;;;;;;;;;;25.30;17.50;;;;;;4781694;30;20051;-85
2022/07/21 09:04:43;;;;;;;7.03;5.35;;;24.80;5.00;;;;;;4774131;29;19937;-85
2022/07/21 09:07:46;;;;;;;8.82;5.72;;;24.90;2.00;;;;;;4772787;29;20396;-86
2022/07/21 09:10:37;;;;;;;8.95;5.35;;;25.00;1.00;;;;;;4773548;30;20048;-84
2022/07/21 09:13:26;;;;;;;7.25;5.38;;;25.90;1.00;;;;;;4767755;30;20052;-84
2022/07/21 09:16:35;;;;;;;6.60;5.15;;;26.50;1.00;;;;;;4782518;29;20063;-85
2022/07/21 09:19:27;;;;;;;8.88;6.25;;;26.50;1.00;;;;;;4775245;29;20059;-84
2022/07/21 09:22:19;;;;;;;9.77;6.25;;;26.20;1.00;;;;;;4785551;29;20378;-85
2022/07/21 09:25:07;;;;;;;7.70;5.80;;;25.10;1.00;;;;;;4788102;29;20334;-85
2022/07/21 09:28:15;;;;;;;12.05;6.25;;;25.00;1.00;;;;;;4781191;29;20059;-79
2022/07/21 09:31:08;;;;;;;9.40;6.15;;;25.00;1.00;;;;;;4785887;29;20493;-79
2022/07/21 09:33:58;;;;;;;7.22;4.70;;;25.20;1.00;;;;;;4774097;29;20134;-81
2022/07/21 09:36:59;;;;;;;6.80;5.05;;;25.50;1.00;;;;;;4774838;30;20481;-79
2022/07/21 09:39:50;;;;;;;7.00;4.85;;;26.30;1.00;;;;;;4774961;30;20055;-81
2022/07/21 09:42:37;;;;;;;7.78;4.68;;;26.60;1.00;;;;;;4773614;29;20134;-80
2022/07/21 09:45:25;;;;;;;9.32;5.18;;;26.30;1.00;;;;;;4774048;29;20056;-80
2022/07/21 09:48:33;;;;;;;8.32;5.50;;;26.30;1.00;;;;;;4780039;29;20120;-80
2022/07/21 09:51:30;;;;;;;7.13;5.22;;;26.10;1.00;;;;;;4787484;30;20772;-80
2022/07/21 09:54:17;;;;;;;5.78;4.18;;;26.80;1.00;;;;;;4776217;29;20374;-84
2022/07/21 09:57:05;;;;;;;6.75;3.95;;;27.60;1.00;;;;;;4777079;30;20051;-83
2022/07/21 09:59:53;;;;;;;4.78;4.18;;;28.40;1.00;;;;;;4782407;30;20382;-82
2022/07/21 10:02:56;;;;;;;5.10;3.80;;;28.70;1.00;;;;;;4775928;30;20131;-81
2022/07/21 10:05:43;;;;;;;4.35;3.60;;;29.50;1.00;;;;;;4773136;30;20056;-81
2022/07/21 10:08:33;;;;;;;5.25;4.10;;;30.30;1.00;;;;;;4778604;29;20067;-83
2022/07/21 10:11:22;;;;;;;5.90;4.70;;;29.10;1.00;;;;;;4776147;29;20089;-83
2022/07/21 10:14:16;;;;;;;6.10;4.18;;;28.40;1.00;;;;;;4782042;30;20085;-80
2022/07/21 10:17:07;;;;;;;7.57;4.25;;;29.30;1.00;;;;;;4784684;30;20052;-80
2022/07/21 10:20:18;;;;;;;4.90;4.18;;;30.20;1.00;;;;;;4782650;29;20082;-80
2022/07/21 10:23:22;;;;;;;4.15;3.42;;;30.10;1.00;;;;;;4772115;30;20147;-81
2022/07/21 10:26:11;;;;;;;7.72;3.90;;;30.10;1.00;;;;;;4767267;30;20060;-81
2022/07/21 10:28:58;;;;;;;3.38;2.92;;;30.80;1.00;;;;;;4778209;30;20066;-81
2022/07/21 10:31:45;;;;;;;3.63;3.33;;;30.70;1.00;;;;;;4773038;29;20060;-81
2022/07/21 10:34:42;;;;;;;4.88;2.95;;;30.00;1.00;;;;;;4779043;29;20355;-81
2022/07/21 10:37:39;;;;;;;4.78;3.35;;;30.50;1.00;;;;;;4775838;30;20056;-82
2022/07/21 10:40:29;;;;;;;4.95;3.83;;;31.40;1.00;;;;;;4772932;29;20445;-82
2022/07/21 10:43:17;;;;;;;5.63;3.15;;;32.70;1.00;;;;;;4763967;29;20052;-82
2022/07/21 10:46:34;;;;;;;5.78;3.33;;;33.40;1.00;;;;;;4776471;29;20047;-82
2022/07/21 10:49:56;;;;;;;4.20;3.78;;;33.90;1.00;;;;;;4771283;29;20059;-82
2022/07/21 10:52:49;;;;;;;6.25;4.57;;;32.30;1.00;;;;;;4770692;30;20106;-83
2022/07/21 10:55:37;;;;;;;12.65;4.22;;;30.50;1.00;;;;;;4772103;30;20067;-80
2022/07/21 10:58:24;;;;;;;4.55;3.50;;;30.90;1.00;;;;;;4790151;29;20062;-80
2022/07/21 11:01:15;;;;;;;5.43;3.90;;;31.00;1.00;;;;;;4761785;30;20056;-83
2022/07/21 11:04:12;;;;;;;4.93;3.42;;;31.70;1.00;;;;;;4783134;30;20066;-83
2022/07/21 11:07:02;;;;;;;5.28;3.60;;;32.70;1.00;;;;;;4771179;29;20089;-83
2022/07/21 11:10:17;;;;;;;3.75;3.20;;;33.80;1.00;;;;;;4775651;30;20090;-83
2022/07/21 11:13:04;;;;;;;5.40;3.75;;;33.30;1.00;;;;;;4765838;30;20474;-82
2022/07/21 11:16:01;;;;;;;5.00;3.92;;;29.80;1.00;;;;;;4769970;30;20069;-82
2022/07/21 11:18:48;;;;;;;11.40;3.95;;;28.80;1.00;;;;;;4772768;30;20066;-82
2022/07/21 11:21:35;;;;;;;5.28;3.60;;;30.00;1.00;;;;;;4769506;30;20047;-83
2022/07/21 11:24:24;;;;;;;4.47;3.40;;;31.20;1.00;;;;;;4772195;29;20055;-83
2022/07/21 11:27:17;;;;;;;5.80;3.35;;;31.30;1.00;;;;;;4780905;29;20062;-82
2022/07/21 11:30:12;;;;;;;5.90;3.15;;;30.90;1.00;;;;;;4774528;29;20059;-82
2022/07/21 11:32:59;;;;;;;5.90;3.60;;;31.50;1.00;;;;;;4771900;30;20059;-82
2022/07/21 11:35:47;;;;;;;4.50;3.10;;;32.50;99.90;;;;;;4772706;29;20063;-82
2022/07/21 11:38:35;;;;;;;3.30;2.42;;;32.90;99.90;;;;;;4762937;30;20040;-82
2022/07/21 11:41:22;;;;;;;4.07;2.75;;;32.50;99.90;;;;;;4772105;30;20059;-83
2022/07/21 11:44:11;;;;;;;3.00;2.67;;;32.60;99.90;;;;;;4772923;29;20430;-83
2022/07/21 11:47:02;;;;;;;3.20;2.50;;;33.20;99.90;;;;;;4781554;29;20059;-82
2022/07/21 11:49:52;;;;;;;5.53;2.65;;;32.60;99.90;;;;;;4780694;30;20082;-82
2022/07/21 11:52:40;;;;;;;3.17;2.50;;;32.80;99.90;;;;;;4771543;29;20316;-81
2022/07/21 11:55:29;;;;;;;3.45;2.65;;;32.20;99.90;;;;;;4770824;30;20058;-83
2022/07/21 11:58:19;;;;;;;3.38;2.55;;;32.10;99.90;;;;;;4772901;29;20055;-83
2022/07/21 12:01:09;;;;;;;3.65;2.75;;;32.10;99.90;;;;;;4774619;30;20067;-82
2022/07/21 12:03:58;;;;;;;3.33;2.70;;;31.40;99.90;;;;;;4771817;30;20135;-82
2022/07/21 12:06:46;;;;;;;5.43;3.47;;;30.70;99.90;;;;;;4773896;29;20456;-84
2022/07/21 12:09:34;;;;;;;3.38;3.08;;;31.10;99.90;;;;;;4784221;30;20128;-83
2022/07/21 12:12:35;;;;;;;3.80;2.58;;;32.50;99.90;;;;;;4770879;30;20128;-83
2022/07/21 12:15:27;;;;;;;4.57;3.15;;;33.80;99.90;;;;;;4773475;29;20197;-82
2022/07/21 12:18:19;;;;;;;2.85;2.65;;;33.90;99.90;;;;;;4779822;30;20465;-83
2022/07/21 12:21:07;;;;;;;3.65;3.00;;;34.10;99.90;;;;;;4768669;29;20043;-82
2022/07/21 12:23:55;;;;;;;4.72;3.05;;;32.80;99.90;;;;;;4769669;30;20096;-83
2022/07/21 12:26:43;;;;;;;5.18;3.15;;;30.70;99.90;;;;;;4778801;29;20059;-83
2022/07/21 12:29:30;;;;;;;5.72;2.92;;;29.20;99.90;;;;;;4772990;29;20062;-84
2022/07/21 12:32:42;;;;;;;4.60;2.90;;;29.30;99.90;;;;;;4769477;29;20063;-81
2022/07/21 12:35:30;;;;;;;4.13;2.72;;;31.10;99.90;;;;;;4766365;30;20056;-80
2022/07/21 12:38:19;;;;;;;3.45;2.80;;;32.10;99.90;;;;;;4773962;30;20048;-80
2022/07/21 12:41:07;;;;;;;5.65;2.55;;;31.80;99.90;;;;;;4785733;30;20051;-80
2022/07/21 12:44:11;;;;;;;5.30;2.80;;;31.00;99.90;;;;;;4781072;30;20055;-82
2022/07/21 12:47:13;;;;;;;4.75;2.75;;;31.00;99.90;;;;;;4770993;29;20055;-82
2022/07/21 12:50:02;;;;;;;7.25;2.90;;;31.50;99.90;;;;;;4774034;29;20054;-81
2022/07/21 12:53:11;;;;;;;13.90;4.80;;;31.30;99.90;;;;;;4765476;30;20134;-83
2022/07/21 12:56:01;;;;;;;7.45;3.38;;;30.50;99.90;;;;;;4784380;29;20063;-81
2022/07/21 12:58:49;;;;;;;3.85;2.90;;;31.00;99.90;;;;;;4769904;30;20055;-81
2022/07/21 13:01:38;;;;;;;3.15;2.80;;;30.90;99.90;;;;;;4776102;29;20157;-80
2022/07/21 13:04:28;;;;;;;3.13;2.60;;;32.00;99.90;;;;;;4765598;30;20493;-82
2022/07/21 13:07:16;;;;;;;4.40;2.80;;;32.10;99.90;;;;;;4772969;30;20047;-81
2022/07/21 13:10:03;;;;;;;4.05;2.92;;;32.20;99.90;;;;;;4771135;29;20060;-81
2022/07/21 13:12:51;;;;;;;5.45;2.83;;;31.10;99.90;;;;;;4776222;29;20054;-81
2022/07/21 13:15:38;;;;;;;4.88;2.53;;;30.80;99.90;;;;;;4774055;30;20076;-81
2022/07/21 13:18:25;;;;;;;4.38;2.80;;;30.60;99.90;;;;;;4784977;30;20351;-82
2022/07/21 13:21:13;;;;;;;3.95;3.00;;;30.30;99.90;;;;;;4763115;30;20052;-81
2022/07/21 13:24:00;;;;;;;3.15;2.75;;;30.60;99.90;;;;;;4785341;29;20051;-81
2022/07/21 13:26:47;;;;;;;3.10;2.80;;;30.40;99.90;;;;;;4779624;30;20047;-82
2022/07/21 13:29:36;;;;;;;7.78;3.10;;;30.50;99.90;;;;;;4763731;30;20135;-82
2022/07/21 13:32:24;;;;;;;4.40;2.83;;;31.60;99.90;;;;;;4755101;30;20471;-82
2022/07/21 13:35:11;;;;;;;5.32;3.25;;;32.10;99.90;;;;;;4763029;30;20513;-81
2022/07/21 13:38:16;;;;;;;3.90;3.53;;;31.70;99.90;;;;;;4774157;29;20051;-82
2022/07/21 13:41:03;;;;;;;5.07;3.30;;;31.40;99.90;;;;;;4777389;29;20076;-82
2022/07/21 13:44:11;;;;;;;4.00;3.65;;;31.70;99.90;;;;;;4771591;29;20048;-82
2022/07/21 13:46:58;;;;;;;7.07;4.40;;;31.10;99.90;;;;;;4773911;29;20055;-82
2022/07/21 13:49:48;;;;;;;7.38;4.40;;;30.10;99.90;;;;;;4773654;29;20447;-84
2022/07/21 13:52:36;;;;;;;5.00;3.88;;;30.30;99.90;;;;;;4782703;30;20051;-83
2022/07/21 13:55:27;;;;;;;6.20;3.88;;;30.10;99.90;;;;;;4776534;30;20051;-85
2022/07/21 13:58:14;;;;;;;4.70;3.65;;;29.30;99.90;;;;;;4771337;30;20051;-82
2022/07/21 14:01:04;;;;;;;5.55;4.30;;;28.90;99.90;;;;;;4779456;29;20052;-83
2022/07/21 14:03:52;;;;;;;4.18;3.58;;;29.10;99.90;;;;;;4784388;30;20055;-82
2022/07/21 14:06:40;;;;;;;7.28;3.83;;;31.00;99.90;;;;;;4780362;29;20083;-83
2022/07/21 14:09:30;;;;;;;4.13;3.47;;;31.40;99.90;;;;;;4777378;29;20051;-82
2022/07/21 14:12:18;;;;;;;8.95;4.10;;;30.20;99.90;;;;;;4775343;30;20058;-82
2022/07/21 14:15:06;;;;;;;4.53;3.78;;;29.30;99.90;;;;;;4773969;30;20330;-82
2022/07/21 14:17:54;;;;;;;4.95;4.20;;;29.00;99.90;;;;;;4780344;30;20052;-83
2022/07/21 14:20:44;;;;;;;6.32;3.97;;;28.80;99.90;;;;;;4781687;30;20466;-83
2022/07/21 14:23:32;;;;;;;7.55;4.72;;;29.90;99.90;;;;;;4781869;30;20390;-84
2022/07/21 14:26:19;;;;;;;5.43;3.65;;;30.70;99.90;;;;;;4776567;29;20126;-83
2022/07/21 14:29:07;;;;;;;5.30;3.90;;;30.70;99.90;;;;;;4773956;30;20434;-84
2022/07/21 14:31:55;;;;;;;5.10;3.85;;;30.20;99.90;;;;;;4778038;30;20102;-81
2022/07/21 14:34:43;;;;;;;4.38;4.03;;;29.40;99.90;;;;;;4773306;30;20181;-83
2022/07/21 14:37:30;;;;;;;5.03;3.95;;;28.90;99.90;;;;;;4775812;29;20047;-83
2022/07/21 14:40:21;;;;;;;4.88;3.75;;;28.70;99.90;;;;;;4776590;29;20055;-85
2022/07/21 14:43:11;;;;;;;4.10;3.70;;;28.70;99.90;;;;;;4771498;30;20065;-81
2022/07/21 14:45:58;;;;;;;5.45;3.67;;;28.60;99.90;;;;;;4769024;29;20066;-81
2022/07/21 14:48:46;;;;;;;5.50;3.92;;;28.60;99.90;;;;;;4771856;30;20185;-82